Gainesville, AL

9:15 PM CDT on April 18, 2015 (GMT -0500)
Tuscaloosa Municipal | | Change Station
CLOSE
Current Station
Airport
Location: Tuscaloosa,
Elevation: 171 ft
Nearby Weather Stations
Active Advisory: Flood Warning

Elev 171 ft 33.22 °N, 87.61 °W | Updated 14 minutes ago

Rain
Rain
69 °F
Feels Like 69 °F
N
5
Wind Variable Wind from ESE

Today
High -- | Low -- °F
--% Chance of Precip.
Yesterday
High -- | Low -- °F
Precip. -- in
6:19 AM 7:24 PM
New Moon, 0% visible
Pressure 29.89 in
Visibility 10.0 miles
Clouds Scattered Clouds 2000 ft
Mostly Cloudy 11000 ft
Dew Point 64 °F
Humidity 84%
Rainfall 0.00 in
Snow Depth Not available.
UV 0 out of 12
Pollen 6.10 out of 12
Air Quality Not available.
Flu Activity Sporadic
SPECI KTCL 190201Z AUTO 11004KT 10SM -RA SCT020 BKN110 21/18 A2989 RMK AO2 RAB00 P0000 T02060178

More Conditions Fewer Conditions

Pressure 29.89 in
Visibility 10.0 miles
Clouds Scattered Clouds 2000 ft
Mostly Cloudy 11000 ft
Dew Point 64 °F
Humidity 84%
Rainfall 0.00 in
Snow Depth Not available.
UV 0 out of 12
Pollen 6.10 out of 12
Air Quality Not available.
Flu Activity Sporadic
SPECI KTCL 190201Z AUTO 11004KT 10SM -RA SCT020 BKN110 21/18 A2989 RMK AO2 RAB00 P0000 T02060178

More Conditions Fewer Conditions

10-Day Weather Forecast

Almanac

Astronomy

Apr. 18, 2015 Rise Set
Actual Time
Civil Twilight
Nautical Twilight
Astronomical Twilight
Moon
Length of Visible Light
Length of Day
Tomorrow will be .
, % of the Moon is Illuminated

Today's Extremes

State Highs State Lows

Community

WunderPhotos

Upload Photos

1,814,632 photos uploaded!

WunderBlogs® & News

Nearby

Air Quality

  Air Quality AQ Index Pollutant
Not available.

Snow Depth

Station Depth Elevation

Earthquake Activity

City Distance Mag. Time & Date
Minimum magnitude displayed is 2.5.

Coastal Water Temperatures

Place Temperature

Stations

Nearby Weather Stations

Station Location Temp. Windchill Dew Point Humidity Wind Precip. Elev Updated Type
                   
Flood Warning
Statement as of 9:18 AM CDT on April 18, 2015

The Flood Warning continues for
the Tombigbee river at Demopolis lock and dam.
* From late Monday night to Wednesday afternoon... or until the
warning is cancelled.
* At 8:15 am Saturday the stage was 59.5 feet.
* Flood stage is 68.0 feet.
* Minor flooding is forecast.
* Forecast... rise above flood stage by early Tuesday morning and
continue to rise to near 68.6 feet by early Tuesday afternoon. The
river will fall below flood stage by early Wednesday morning.
* Impact... at 68.0 feet... flooding of lowlands in the area occurs and
cattle should be moved to higher ground.


Lat... Lon 3252 8782 3225 8790 3201 8806 3201 8816
          3241 8809 3253 8790